createdAt,value
2017-07-23T00:00:51.995Z,17.23
2017-07-23T00:03:20.124Z,16.50
2017-07-23T00:05:48.911Z,17.17
2017-07-23T00:08:17.057Z,17.20
2017-07-23T00:10:45.176Z,18.00
2017-07-23T00:13:14.565Z,18.47
2017-07-23T00:15:45.179Z,18.50
2017-07-23T00:18:13.281Z,18.43
2017-07-23T00:20:42.258Z,18.90
2017-07-23T00:23:11.409Z,18.00
2017-07-23T00:25:39.499Z,18.30
2017-07-23T00:28:08.886Z,18.00
2017-07-23T00:30:38.557Z,19.60
2017-07-23T00:33:07.625Z,18.00
2017-07-23T00:35:36.528Z,19.17
2017-07-23T00:38:04.673Z,25.77
2017-07-23T00:40:33.853Z,28.77
2017-07-23T00:43:02.738Z,29.53
2017-07-23T00:45:31.498Z,24.10
2017-07-23T00:47:59.611Z,22.10
2017-07-23T00:50:29.341Z,19.73
2017-07-23T00:52:58.519Z,19.17
2017-07-23T00:55:26.657Z,21.30
2017-07-23T00:57:55.537Z,19.80
2017-07-23T01:00:23.664Z,18.73
2017-07-23T01:02:52.896Z,18.73
2017-07-23T01:05:21.082Z,20.20
2017-07-23T01:07:49.210Z,19.70
2017-07-23T01:10:20.823Z,19.73
2017-07-23T01:12:48.918Z,20.30
2017-07-23T01:15:17.608Z,19.80
2017-07-23T01:17:47.565Z,20.60
2017-07-23T01:20:15.670Z,20.40
2017-07-23T01:22:47.110Z,20.87
2017-07-23T01:25:15.526Z,19.60
2017-07-23T01:27:43.686Z,22.23
2017-07-23T01:30:11.794Z,21.40
2017-07-23T01:32:40.790Z,21.30
2017-07-23T01:35:08.902Z,21.60
2017-07-23T01:37:37.005Z,21.10
2017-07-23T01:40:07.259Z,21.07
2017-07-23T01:42:35.420Z,20.97
2017-07-23T01:45:03.564Z,22.00
2017-07-23T01:47:32.374Z,22.50
2017-07-23T01:50:00.483Z,25.60
2017-07-23T01:52:30.341Z,26.67
2017-07-23T01:55:05.282Z,29.00
2017-07-23T01:57:33.502Z,22.40
2017-07-23T02:00:01.632Z,21.60
2017-07-23T02:02:29.744Z,21.77
2017-07-23T02:04:57.876Z,21.23
2017-07-23T02:07:26.174Z,21.93
2017-07-23T02:09:54.305Z,22.20
2017-07-23T02:12:22.484Z,21.23
2017-07-23T02:14:50.578Z,20.00
2017-07-23T02:17:19.333Z,22.10
2017-07-23T02:19:49.118Z,20.83
2017-07-23T02:22:17.241Z,20.33
2017-07-23T02:24:50.023Z,22.63
2017-07-23T02:27:18.165Z,22.53
2017-07-23T02:29:47.126Z,23.50
2017-07-23T02:32:15.250Z,23.67
2017-07-23T02:34:43.344Z,23.30
2017-07-23T02:37:12.236Z,23.47
2017-07-23T02:39:40.358Z,24.10
2017-07-23T02:42:08.634Z,24.50
2017-07-23T02:44:38.468Z,24.63
2017-07-23T02:47:08.516Z,24.53
2017-07-23T02:49:36.648Z,24.07
2017-07-23T02:52:05.420Z,23.40
2017-07-23T02:54:33.544Z,24.17
2017-07-23T02:57:02.411Z,23.50
2017-07-23T02:59:30.562Z,25.40
2017-07-23T03:01:59.474Z,25.50
2017-07-23T03:04:28.965Z,25.47
2017-07-23T03:06:57.099Z,25.40
2017-07-23T03:09:25.507Z,26.27
2017-07-23T03:12:02.393Z,26.30
2017-07-23T03:14:32.286Z,24.87
2017-07-23T03:17:00.378Z,26.17
2017-07-23T03:19:28.519Z,25.13
2017-07-23T03:21:56.630Z,26.47
2017-07-23T03:24:24.749Z,25.63
2017-07-23T03:26:52.877Z,25.33
2017-07-23T03:29:22.139Z,25.13
2017-07-23T03:31:50.236Z,25.47
2017-07-23T03:34:18.367Z,26.20
2017-07-23T03:36:47.319Z,25.60
2017-07-23T03:39:16.006Z,25.20
2017-07-23T03:41:44.116Z,25.00
2017-07-23T03:44:12.272Z,24.03
2017-07-23T03:46:40.399Z,25.00
2017-07-23T03:49:24.341Z,24.80
2017-07-23T03:51:52.433Z,25.47
2017-07-23T03:54:21.301Z,23.37
2017-07-23T03:56:49.463Z,23.90
2017-07-23T03:59:20.106Z,23.67
2017-07-23T04:01:49.067Z,22.43
2017-07-23T04:04:17.241Z,23.63
2017-07-23T04:06:45.366Z,23.87
2017-07-23T04:09:13.499Z,23.83
2017-07-23T04:11:41.635Z,24.90
2017-07-23T04:14:09.755Z,26.87
2017-07-23T04:16:38.835Z,29.07
2017-07-23T04:19:06.960Z,25.70
2017-07-23T04:21:35.583Z,25.40
2017-07-23T04:24:08.298Z,22.47
2017-07-23T04:26:36.402Z,21.60
2017-07-23T04:29:05.122Z,23.37
2017-07-23T04:31:53.111Z,24.27
2017-07-23T04:34:21.994Z,26.00
2017-07-23T04:36:50.112Z,24.20
2017-07-23T04:39:23.078Z,25.83
2017-07-23T04:41:51.210Z,25.40
2017-07-23T04:44:34.112Z,24.73
2017-07-23T04:47:03.423Z,26.73
2017-07-23T04:49:32.286Z,26.50
2017-07-23T04:52:00.396Z,23.73
2017-07-23T04:54:30.456Z,22.77
2017-07-23T04:56:58.581Z,23.30
2017-07-23T04:59:26.694Z,21.50
2017-07-23T05:01:55.212Z,20.87
2017-07-23T05:04:24.250Z,19.27
2017-07-23T05:06:52.445Z,20.40
2017-07-23T05:09:20.562Z,18.73
2017-07-23T05:11:48.701Z,18.20
2017-07-23T05:14:17.619Z,19.40
2017-07-23T05:16:45.773Z,18.47
2017-07-23T05:19:13.875Z,18.37
2017-07-23T05:21:42.075Z,21.07
2017-07-23T05:24:10.169Z,18.80
2017-07-23T05:26:39.051Z,18.07
2017-07-23T05:29:07.940Z,19.47
2017-07-23T05:31:40.321Z,18.03
2017-07-23T05:34:19.599Z,16.90
2017-07-23T05:36:47.740Z,16.70
2017-07-23T05:39:19.410Z,15.63
2017-07-23T05:41:48.248Z,14.63
2017-07-23T05:44:17.331Z,13.97
2017-07-23T05:46:47.357Z,15.83
2017-07-23T05:49:17.320Z,14.80
2017-07-23T05:51:46.172Z,17.07
2017-07-23T05:54:15.277Z,15.97
2017-07-23T05:56:43.399Z,16.07
2017-07-23T05:59:15.182Z,17.67
2017-07-23T06:01:45.784Z,16.97
2017-07-23T06:04:14.849Z,17.10
2017-07-23T06:09:41.734Z,17.40
2017-07-23T06:12:10.830Z,17.43
2017-07-23T06:14:39.703Z,18.10
2017-07-23T06:17:07.827Z,18.63
2017-07-23T06:19:35.940Z,18.87
2017-07-23T06:22:04.106Z,18.83
2017-07-23T06:24:32.216Z,20.03
2017-07-23T06:27:08.130Z,21.13
2017-07-23T06:29:37.143Z,20.97
2017-07-23T06:32:05.262Z,19.53
2017-07-23T06:34:34.457Z,21.67
2017-07-23T06:37:03.505Z,20.23
2017-07-23T06:39:32.474Z,20.37
2017-07-23T06:42:00.578Z,19.00
2017-07-23T06:44:28.698Z,17.83
2017-07-23T06:46:57.162Z,17.03
2017-07-23T06:49:25.253Z,16.87
2017-07-23T06:51:53.355Z,15.77
2017-07-23T06:54:41.390Z,16.20
2017-07-23T06:57:09.531Z,17.43
2017-07-23T06:59:37.648Z,18.43
2017-07-23T07:02:05.778Z,14.33
2017-07-23T07:04:33.895Z,14.00
2017-07-23T07:07:02.071Z,10.37
2017-07-23T07:09:37.086Z,9.07
2017-07-23T07:12:05.209Z,8.53
2017-07-23T07:14:43.593Z,8.93
2017-07-23T07:17:11.700Z,8.67
2017-07-23T07:19:40.618Z,8.57
2017-07-23T07:22:12.567Z,9.10
2017-07-23T07:24:40.679Z,9.33
2017-07-23T07:27:10.758Z,8.57
2017-07-23T07:29:39.778Z,8.60
2017-07-23T07:32:08.680Z,11.00
2017-07-23T07:35:18.299Z,9.90
2017-07-23T07:37:46.495Z,9.00
2017-07-23T07:40:18.158Z,8.03
2017-07-23T07:42:46.378Z,8.20
2017-07-23T07:47:53.739Z,7.70
2017-07-23T07:50:21.879Z,7.47
2017-07-23T07:52:50.943Z,8.03
2017-07-23T07:55:19.058Z,7.57
2017-07-23T07:57:49.995Z,6.30
2017-07-23T08:00:18.109Z,7.00
2017-07-23T08:02:46.962Z,6.70
2017-07-23T08:05:15.084Z,7.70
2017-07-23T08:07:43.251Z,6.73
2017-07-23T08:10:11.339Z,7.43
2017-07-23T08:12:40.429Z,7.47
2017-07-23T08:15:08.608Z,7.00
2017-07-23T08:17:36.733Z,5.83
2017-07-23T08:20:04.831Z,5.30
2017-07-23T08:22:34.772Z,4.53
2017-07-23T08:25:03.033Z,5.17
2017-07-23T08:27:31.476Z,4.20
2017-07-23T08:29:59.673Z,4.80
2017-07-23T08:32:28.701Z,5.00
2017-07-23T08:34:56.818Z,5.70
2017-07-23T08:37:25.764Z,5.40
2017-07-23T08:39:53.903Z,3.20
2017-07-23T08:42:22.069Z,2.70
2017-07-23T08:45:03.613Z,2.47
2017-07-23T08:47:31.703Z,2.10
2017-07-23T08:49:59.807Z,2.03
2017-07-23T08:52:27.897Z,2.67
2017-07-23T08:54:56.033Z,3.13
2017-07-23T08:57:24.122Z,3.60
2017-07-23T08:59:52.238Z,4.20
2017-07-23T09:02:20.347Z,4.53
2017-07-23T09:04:48.515Z,4.30
2017-07-23T09:07:17.323Z,4.80
2017-07-23T09:09:45.794Z,5.17
2017-07-23T09:12:13.937Z,4.93
2017-07-23T09:14:42.379Z,4.90
2017-07-23T09:17:10.470Z,4.50
2017-07-23T09:19:38.572Z,4.93
2017-07-23T09:22:06.688Z,5.33
2017-07-23T09:24:41.393Z,5.03
2017-07-23T09:27:10.319Z,4.93
2017-07-23T09:29:38.446Z,5.50
2017-07-23T09:32:09.838Z,5.40
2017-07-23T09:34:38.932Z,4.87
2017-07-23T09:37:07.176Z,4.87
2017-07-23T09:39:35.970Z,4.07
2017-07-23T09:42:04.157Z,3.80
2017-07-23T09:44:32.247Z,2.90
2017-07-23T09:47:00.358Z,2.60
2017-07-23T09:49:29.829Z,2.90
2017-07-23T09:52:05.492Z,2.47
2017-07-23T09:54:37.706Z,2.03
2017-07-23T09:57:05.879Z,2.57
2017-07-23T09:59:33.985Z,2.93
2017-07-23T10:02:03.200Z,3.30
2017-07-23T10:04:35.005Z,3.70
2017-07-23T10:07:03.129Z,4.30
2017-07-23T10:09:31.256Z,3.60
2017-07-23T10:11:59.399Z,3.80
2017-07-23T10:14:28.326Z,3.87
2017-07-23T10:16:56.514Z,3.70
2017-07-23T10:19:28.034Z,4.40
2017-07-23T10:21:56.169Z,4.70
2017-07-23T10:24:26.204Z,4.93
2017-07-23T10:26:54.422Z,4.60
2017-07-23T10:29:22.572Z,5.00
2017-07-23T10:31:50.835Z,4.50
2017-07-23T10:34:25.290Z,4.90
2017-07-23T10:36:53.465Z,4.77
2017-07-23T10:39:22.421Z,5.20
2017-07-23T10:41:54.481Z,5.23
2017-07-23T10:44:22.592Z,6.00
2017-07-23T10:46:51.423Z,6.10
2017-07-23T10:49:21.554Z,5.10
2017-07-23T10:51:49.767Z,5.70
2017-07-23T10:54:29.368Z,6.40
2017-07-23T10:56:58.503Z,5.40
2017-07-23T10:59:28.656Z,6.40
2017-07-23T11:01:56.824Z,6.03
2017-07-23T11:04:24.914Z,5.77
2017-07-23T11:06:53.786Z,6.43
2017-07-23T11:09:21.949Z,6.47
2017-07-23T11:11:50.075Z,5.80
2017-07-23T11:14:18.356Z,8.67
2017-07-23T11:16:51.485Z,6.97
2017-07-23T11:19:20.565Z,6.77
2017-07-23T11:21:48.745Z,6.80
2017-07-23T11:24:16.857Z,7.50
2017-07-23T11:26:59.784Z,6.53
2017-07-23T11:29:27.906Z,7.40
2017-07-23T11:31:59.348Z,7.90
2017-07-23T11:34:31.422Z,7.87
2017-07-23T11:37:01.336Z,7.60
2017-07-23T11:39:29.455Z,7.00
2017-07-23T11:41:57.656Z,8.13
2017-07-23T11:44:30.351Z,7.23
2017-07-23T11:46:58.478Z,6.93
2017-07-23T11:49:31.946Z,7.60
2017-07-23T11:52:09.991Z,6.70
2017-07-23T11:54:43.947Z,6.90
2017-07-23T11:57:15.433Z,7.20
2017-07-23T11:59:44.711Z,7.20
2017-07-23T12:02:14.268Z,6.60
2017-07-23T12:04:43.298Z,6.30
2017-07-23T12:07:11.439Z,5.90
2017-07-23T12:09:39.639Z,6.30
2017-07-23T12:12:07.770Z,6.60
2017-07-23T12:14:36.836Z,7.03
2017-07-23T12:17:04.963Z,6.87
2017-07-23T12:19:33.427Z,6.60
2017-07-23T12:22:03.225Z,5.77
2017-07-23T12:24:31.372Z,6.10
2017-07-23T12:27:12.351Z,3.90
2017-07-23T12:29:57.417Z,2.73
2017-07-23T12:32:39.579Z,2.47
2017-07-23T12:35:11.006Z,3.37
2017-07-23T12:38:02.485Z,3.93
2017-07-23T12:40:33.288Z,4.17
2017-07-23T12:43:07.003Z,4.07
2017-07-23T12:45:43.155Z,3.70
2017-07-23T12:48:32.311Z,4.00
2017-07-23T12:51:02.507Z,4.13
2017-07-23T12:53:36.110Z,4.90
2017-07-23T12:56:05.157Z,4.80
2017-07-23T12:58:33.291Z,5.10
2017-07-23T13:01:02.527Z,5.10
2017-07-23T13:03:32.664Z,5.40
2017-07-23T13:06:09.853Z,4.63
2017-07-23T13:08:51.969Z,5.10
2017-07-23T13:11:22.130Z,5.70
2017-07-23T13:13:50.255Z,5.83
2017-07-23T13:16:18.374Z,4.20
2017-07-23T13:18:48.447Z,4.20
2017-07-23T13:21:16.718Z,3.80
2017-07-23T13:23:47.966Z,3.50
2017-07-23T13:26:21.069Z,4.13
2017-07-23T13:28:49.303Z,2.90
2017-07-23T13:31:18.520Z,2.80
2017-07-23T13:33:49.720Z,3.37
2017-07-23T13:36:20.280Z,4.07
2017-07-23T13:38:48.470Z,3.17
2017-07-23T13:41:19.510Z,3.67
2017-07-23T13:43:52.726Z,3.13
2017-07-23T13:46:23.384Z,3.20
2017-07-23T13:48:53.424Z,2.70
2017-07-23T13:51:24.829Z,3.20
2017-07-23T13:53:52.970Z,1.87
2017-07-23T13:56:25.015Z,2.20
2017-07-23T13:58:54.110Z,2.40
2017-07-23T14:01:23.051Z,1.73
2017-07-23T14:03:53.556Z,1.73
2017-07-23T14:06:32.210Z,2.47
2017-07-23T14:09:03.301Z,1.70
2017-07-23T14:11:32.715Z,1.70
2017-07-23T14:14:04.197Z,1.67
2017-07-23T14:16:37.346Z,1.70
2017-07-23T14:19:06.743Z,1.73
2017-07-23T14:21:35.938Z,1.80
2017-07-23T14:24:08.361Z,2.13
2017-07-23T14:26:47.759Z,1.80
2017-07-23T14:29:18.376Z,1.93
2017-07-23T14:31:55.111Z,1.77
2017-07-23T14:34:23.263Z,2.00
2017-07-23T14:37:11.837Z,2.20
2017-07-23T14:39:41.784Z,2.50
2017-07-23T14:42:09.898Z,2.00
2017-07-23T14:44:38.087Z,1.90
2017-07-23T14:47:11.134Z,2.57
2017-07-23T14:49:40.960Z,2.07
2017-07-23T14:52:24.992Z,1.80
2017-07-23T14:54:55.527Z,1.90
2017-07-23T15:03:00.850Z,2.30
2017-07-23T15:05:31.171Z,2.27
2017-07-23T15:22:54.238Z,5.10
2017-07-23T15:25:30.740Z,2.00
2017-07-23T15:28:12.428Z,2.00
2017-07-23T15:30:44.976Z,1.80
2017-07-23T15:39:08.994Z,2.10
2017-07-23T15:41:39.835Z,1.63
2017-07-23T15:44:08.255Z,1.80
2017-07-23T15:46:43.037Z,1.87
2017-07-23T15:49:17.628Z,2.00
2017-07-23T15:51:51.086Z,2.30
2017-07-23T15:54:27.630Z,2.10
2017-07-23T15:56:57.368Z,7.27
2017-07-23T15:59:31.314Z,3.30
2017-07-23T16:02:07.084Z,2.13
2017-07-23T16:04:40.467Z,1.73
2017-07-23T16:07:14.480Z,1.83
2017-07-23T16:09:58.805Z,2.00
2017-07-23T16:12:35.440Z,1.77
2017-07-23T16:15:14.159Z,1.50
2017-07-23T16:17:49.942Z,1.63
2017-07-23T16:20:22.162Z,2.10
2017-07-23T16:23:03.733Z,1.93
2017-07-23T16:25:33.253Z,7.27
2017-07-23T16:28:04.517Z,2.30
2017-07-23T16:45:14.012Z,1.53
2017-07-23T16:47:42.168Z,1.73
2017-07-23T16:50:11.821Z,1.63
2017-07-23T16:52:40.033Z,2.10
2017-07-23T17:04:39.340Z,2.07
2017-07-23T17:07:07.627Z,1.80
2017-07-23T17:09:35.752Z,2.80
2017-07-23T17:12:09.911Z,2.63
2017-07-23T17:14:38.124Z,2.20
2017-07-23T17:17:14.129Z,2.03
2017-07-23T17:19:43.043Z,1.90
2017-07-23T17:22:14.269Z,2.20
2017-07-23T17:24:42.707Z,2.00
2017-07-23T17:27:15.559Z,2.10
2017-07-23T17:29:43.691Z,2.13
2017-07-23T17:32:12.636Z,2.30
2017-07-23T17:34:40.794Z,2.10
2017-07-23T17:37:09.010Z,2.07
2017-07-23T17:39:37.893Z,2.70
2017-07-23T17:42:06.073Z,2.30
2017-07-23T17:44:34.220Z,2.60
2017-07-23T17:47:02.366Z,3.03
2017-07-23T17:49:30.953Z,2.43
2017-07-23T17:51:59.558Z,3.13
2017-07-23T17:54:28.635Z,3.50
2017-07-23T17:56:58.886Z,3.20
2017-07-23T17:59:31.757Z,5.50
2017-07-23T18:02:00.809Z,2.80
2017-07-23T18:04:30.711Z,2.70
2017-07-23T18:07:00.532Z,2.33
2017-07-23T18:09:35.684Z,3.03
2017-07-23T18:12:03.783Z,1.67
2017-07-23T18:14:33.813Z,1.70
2017-07-23T18:17:42.195Z,2.30
2017-07-23T18:20:12.575Z,6.00
2017-07-23T18:22:40.736Z,4.50
2017-07-23T18:25:10.089Z,1.50
2017-07-23T18:27:40.054Z,1.40
2017-07-23T18:30:16.745Z,1.00
2017-07-23T18:32:47.947Z,2.67
2017-07-23T18:43:44.080Z,1.13
2017-07-23T18:46:34.347Z,2.00
2017-07-23T18:49:04.458Z,1.83
2017-07-23T18:51:46.544Z,1.20
2017-07-23T18:57:25.972Z,1.40
2017-07-23T19:00:01.409Z,1.30
2017-07-23T19:02:29.651Z,1.70
2017-07-23T19:05:00.110Z,1.40
2017-07-23T19:07:28.473Z,1.83
2017-07-23T19:27:51.912Z,2.00
2017-07-23T19:30:37.732Z,1.70
2017-07-23T19:33:19.437Z,3.37
2017-07-23T19:38:40.508Z,1.53
2017-07-23T19:43:54.107Z,2.13
2017-07-23T19:46:24.184Z,2.30
2017-07-23T19:48:57.861Z,1.30
2017-07-23T19:51:29.687Z,1.70
2017-07-23T19:53:58.745Z,1.43
2017-07-23T19:56:30.514Z,1.87
2017-07-23T19:59:04.714Z,2.07
2017-07-23T20:01:52.702Z,1.80
2017-07-23T20:04:31.882Z,2.10
2017-07-23T20:07:11.274Z,2.10
2017-07-23T20:15:45.343Z,2.17
2017-07-23T20:21:29.260Z,2.00
2017-07-23T20:23:59.851Z,1.53
2017-07-23T20:26:32.863Z,1.87
2017-07-23T20:29:05.134Z,1.60
2017-07-23T20:48:44.502Z,1.37
2017-07-23T20:51:12.670Z,1.27
2017-07-23T20:53:42.130Z,0.97
2017-07-23T21:02:00.046Z,1.00
2017-07-23T21:04:28.153Z,1.33
2017-07-23T21:06:57.345Z,1.17
2017-07-23T21:09:28.297Z,1.53
2017-07-23T21:11:59.443Z,1.90
2017-07-23T21:14:27.636Z,1.80
2017-07-23T21:16:57.267Z,1.60
2017-07-23T21:19:28.728Z,1.60
2017-07-23T21:22:03.457Z,1.23
2017-07-23T21:24:32.679Z,1.60
2017-07-23T21:27:06.595Z,1.40
2017-07-23T21:29:37.416Z,1.30
2017-07-23T21:32:08.599Z,1.77
2017-07-23T21:34:37.503Z,1.40
2017-07-23T21:37:06.401Z,1.40
2017-07-23T21:39:35.415Z,1.80
2017-07-23T21:42:03.991Z,1.63
2017-07-23T21:44:36.696Z,1.70
2017-07-23T21:47:06.203Z,1.47
2017-07-23T21:49:36.807Z,1.87
2017-07-23T21:52:04.922Z,1.60
2017-07-23T21:54:33.023Z,1.23
2017-07-23T21:57:05.811Z,1.70
2017-07-23T21:59:35.448Z,1.27
2017-07-23T22:02:05.006Z,1.60
2017-07-23T22:04:36.531Z,1.63
2017-07-23T22:07:05.406Z,2.10
2017-07-23T22:09:35.034Z,1.50
2017-07-23T22:12:04.320Z,2.20
2017-07-23T22:14:33.503Z,2.23
2017-07-23T22:17:08.012Z,1.60
2017-07-23T22:19:36.111Z,1.80
2017-07-23T22:22:06.787Z,1.73
2017-07-23T22:24:34.969Z,2.10
2017-07-23T22:27:05.968Z,1.93
2017-07-23T22:32:08.438Z,2.17
2017-07-23T22:34:37.376Z,1.80
2017-07-23T22:37:09.576Z,1.63
2017-07-23T22:42:16.857Z,1.83
2017-07-23T22:44:46.390Z,1.97
2017-07-23T22:47:15.076Z,1.80
2017-07-23T22:49:46.952Z,2.00
2017-07-23T22:52:17.091Z,1.80
2017-07-23T22:54:57.700Z,2.00
2017-07-23T22:57:28.200Z,2.10
2017-07-23T22:59:57.334Z,2.33
2017-07-23T23:02:26.060Z,2.60
2017-07-23T23:04:56.360Z,2.07
2017-07-23T23:07:25.732Z,2.17
2017-07-23T23:09:53.950Z,2.20
2017-07-23T23:12:22.242Z,1.80
2017-07-23T23:14:50.380Z,2.30
2017-07-23T23:17:20.441Z,2.00
2017-07-23T23:19:54.354Z,2.30
2017-07-23T23:22:27.166Z,2.20
2017-07-23T23:24:56.568Z,2.10
2017-07-23T23:27:24.675Z,2.00
2017-07-23T23:29:57.221Z,2.50
2017-07-23T23:32:27.600Z,2.77
2017-07-23T23:34:57.286Z,2.80
2017-07-23T23:37:25.769Z,2.40
2017-07-23T23:39:54.685Z,2.50
2017-07-23T23:42:24.006Z,2.10
2017-07-23T23:44:53.756Z,2.00
2017-07-23T23:47:24.649Z,2.63
2017-07-23T23:49:52.931Z,2.30
2017-07-23T23:52:21.828Z,2.60
2017-07-23T23:55:00.028Z,2.13
2017-07-23T23:57:28.151Z,2.70
2017-07-23T23:59:56.371Z,2.67
